Strawberry Valley, California
Current Conditions -  °F | °C
As of 9:20 AM on Thursday 27 Nov 2014 (Local Time) from KGOO Reporting Station
Clear Clear  
Wind Chill: 63°   Ceiling: Unl
Heat Index: 63°   Visibility: 10mi
Dew Point: 30°   Wind: 0mph
Humidity: 30%   Direction: NA
Pressure: 30.24"   Gusts: NA
Location:  39.56°N, 121.11°W
Report Text: KGOO 271720Z AUTO 00000KT 10SM CLR 17/M01 A3024 RMK AO1
Loading
Personal Weather Stations






























Interactive Weather Map New forecast layout! Learn more

10-Day Weather Forecast

Advertisements
Track Severe Weather on mobile